Time;durP1;ratioP1;P1;durP2;ratioP2;P2;SDS_P1;SDS_P2;PMS_P1;PMS_P2;Temp;Humidity;BMP_temperature;BMP_pressure;BME280_temperature;BME280_humidity;BME280_pressure;Samples;Min_cycle;Max_cycle;Signal;HPM_P1;HPM_P2
2024/02/10 00:02:38;;;;;;;88.78;43.70;;;7.80;99.90;;;;;;6042049;23;20030;-81
2024/02/10 00:05:28;;;;;;;89.68;44.13;;;7.80;99.90;;;;;;6058895;23;20054;-83
2024/02/10 00:08:15;;;;;;;91.38;42.20;;;7.80;99.90;;;;;;6037552;23;20023;-84
2024/02/10 00:11:04;;;;;;;87.35;41.53;;;7.90;99.90;;;;;;6058884;23;20324;-84
2024/02/10 00:13:54;;;;;;;84.10;42.88;;;7.90;99.90;;;;;;6057707;23;20027;-82
2024/02/10 00:16:44;;;;;;;67.97;34.40;;;7.90;99.90;;;;;;6049406;23;20396;-79
2024/02/10 00:19:32;;;;;;;57.30;29.45;;;7.90;99.90;;;;;;6076742;23;20071;-80
2024/02/10 00:22:19;;;;;;;53.33;28.88;;;7.90;99.90;;;;;;6058460;23;20033;-79
2024/02/10 00:25:09;;;;;;;56.47;27.77;;;8.00;99.90;;;;;;6075500;23;20050;-85
2024/02/10 00:28:00;;;;;;;36.47;20.90;;;7.90;99.90;;;;;;6060336;23;20407;-83
2024/02/10 00:30:48;;;;;;;51.58;23.92;;;7.90;99.90;;;;;;6067864;23;20023;-79
2024/02/10 00:33:36;;;;;;;54.30;28.88;;;7.90;99.90;;;;;;6067900;23;20030;-79
2024/02/10 00:36:24;;;;;;;50.60;25.52;;;7.90;99.90;;;;;;6066329;23;20067;-87
2024/02/10 00:39:13;;;;;;;47.63;24.67;;;7.90;99.90;;;;;;6034654;23;20031;-77
2024/02/10 00:42:00;;;;;;;43.70;24.05;;;7.90;99.90;;;;;;6069860;23;20090;-83
2024/02/10 00:44:50;;;;;;;47.35;23.88;;;7.90;99.90;;;;;;6066684;23;20746;-83
2024/02/10 00:47:37;;;;;;;45.85;22.67;;;7.90;99.90;;;;;;6038689;23;20483;-82
2024/02/10 00:50:25;;;;;;;36.08;21.40;;;7.90;99.90;;;;;;6060297;23;20026;-83
2024/02/10 00:53:12;;;;;;;42.65;22.50;;;7.80;99.90;;;;;;6057862;23;20050;-81
2024/02/10 00:55:59;;;;;;;32.97;17.33;;;7.90;99.90;;;;;;6037659;23;20027;-80
2024/02/10 00:58:48;;;;;;;29.45;17.00;;;7.90;99.90;;;;;;6037716;23;20462;-80
2024/02/10 01:01:36;;;;;;;33.33;18.48;;;7.90;99.90;;;;;;6040117;23;20023;-80
2024/02/10 01:04:27;;;;;;;40.75;20.55;;;7.90;99.90;;;;;;6059475;23;20102;-85
2024/02/10 01:07:16;;;;;;;35.03;19.50;;;7.90;99.90;;;;;;6058353;23;20027;-83
2024/02/10 01:10:07;;;;;;;35.40;19.60;;;7.90;99.90;;;;;;6057776;23;20269;-84
2024/02/10 01:12:54;;;;;;;34.97;18.98;;;7.90;99.90;;;;;;6077941;23;20086;-78
2024/02/10 01:15:42;;;;;;;37.08;20.95;;;7.90;99.90;;;;;;6088461;23;20027;-80
2024/02/10 01:18:35;;;;;;;34.92;19.80;;;7.90;99.90;;;;;;6077762;23;20082;-79
2024/02/10 01:21:22;;;;;;;43.75;21.08;;;7.90;99.90;;;;;;6084675;23;20021;-78
2024/02/10 01:24:13;;;;;;;36.53;20.70;;;7.90;99.90;;;;;;6081187;23;20023;-81
2024/02/10 01:27:05;;;;;;;36.00;19.17;;;7.80;99.90;;;;;;6068404;23;20037;-84
2024/02/10 01:29:56;;;;;;;36.25;21.20;;;7.80;99.90;;;;;;6041253;23;20023;-85
2024/02/10 01:32:44;;;;;;;35.92;20.45;;;7.80;99.90;;;;;;6040169;23;20022;-83
2024/02/10 01:35:34;;;;;;;41.75;22.25;;;7.80;99.90;;;;;;6060804;23;20027;-84
2024/02/10 01:38:22;;;;;;;40.10;21.52;;;7.70;99.90;;;;;;6064429;23;20042;-83
2024/02/10 01:41:11;;;;;;;54.20;25.60;;;7.80;99.90;;;;;;6062467;23;20031;-80
2024/02/10 01:44:00;;;;;;;63.45;31.30;;;7.70;99.90;;;;;;6061054;23;20771;-83
2024/02/10 01:46:48;;;;;;;77.60;33.00;;;7.70;99.90;;;;;;6059799;23;20030;-82
2024/02/10 01:49:37;;;;;;;74.85;33.88;;;7.70;99.90;;;;;;6060609;23;20204;-80
2024/02/10 01:52:25;;;;;;;85.70;34.38;;;7.60;99.90;;;;;;6058480;23;20925;-83
2024/02/10 01:55:13;;;;;;;63.17;29.10;;;7.60;99.90;;;;;;6058987;23;20609;-80
2024/02/10 01:58:05;;;;;;;57.60;29.45;;;7.60;99.90;;;;;;6062867;23;20066;-84
2024/02/10 02:00:53;;;;;;;59.58;28.00;;;7.60;99.90;;;;;;6060802;23;20035;-84
2024/02/10 02:03:46;;;;;;;56.33;27.70;;;7.60;99.90;;;;;;6070933;23;20050;-78
2024/02/10 02:06:34;;;;;;;54.55;26.77;;;7.60;99.90;;;;;;6049785;23;20031;-85
2024/02/10 02:09:22;;;;;;;55.33;28.30;;;7.60;99.90;;;;;;6080019;23;20026;-82
2024/02/10 02:12:11;;;;;;;96.38;28.08;;;7.60;99.90;;;;;;6076933;23;20094;-78
2024/02/10 02:14:58;;;;;;;74.18;27.08;;;7.60;99.90;;;;;;6082022;23;20027;-85
2024/02/10 02:17:51;;;;;;;71.85;29.45;;;7.60;99.90;;;;;;6072524;23;20101;-84
2024/02/10 02:20:39;;;;;;;63.63;29.48;;;7.60;99.90;;;;;;6064242;23;20489;-84
2024/02/10 02:23:27;;;;;;;71.57;30.40;;;7.60;99.90;;;;;;6065416;23;20389;-82
2024/02/10 02:26:15;;;;;;;63.75;29.27;;;7.50;99.90;;;;;;6078417;23;20039;-81
2024/02/10 02:29:07;;;;;;;104.05;30.83;;;7.50;99.90;;;;;;6063733;23;20041;-84
2024/02/10 02:32:01;;;;;;;133.35;35.15;;;7.50;99.90;;;;;;6061478;23;20054;-86
2024/02/10 02:34:48;;;;;;;69.22;30.80;;;7.50;99.90;;;;;;6023298;23;20026;-82
2024/02/10 02:37:42;;;;;;;71.85;30.98;;;7.40;99.90;;;;;;6042596;23;20052;-82
2024/02/10 02:40:32;;;;;;;69.57;30.57;;;7.40;99.90;;;;;;6063705;23;20122;-83
2024/02/10 02:43:19;;;;;;;61.70;28.42;;;7.30;99.90;;;;;;6043044;23;20243;-81
2024/02/10 02:46:07;;;;;;;69.47;31.02;;;7.30;99.90;;;;;;6041151;23;20022;-81
2024/02/10 02:49:00;;;;;;;71.60;31.80;;;7.20;99.90;;;;;;6062907;23;20324;-86
2024/02/10 02:51:48;;;;;;;75.40;32.70;;;7.20;99.90;;;;;;6068515;23;20019;-78
2024/02/10 02:54:35;;;;;;;80.13;35.58;;;7.20;99.90;;;;;;6047963;23;20038;-83
2024/02/10 02:57:23;;;;;;;93.75;36.15;;;7.20;99.90;;;;;;6039989;23;20122;-82
2024/02/10 03:00:13;;;;;;;78.47;33.72;;;7.10;99.90;;;;;;6058406;23;20114;-77
2024/02/10 03:03:04;;;;;;;84.57;35.70;;;7.10;99.90;;;;;;6070383;23;20027;-83
2024/02/10 03:05:53;;;;;;;79.13;34.13;;;7.10;99.90;;;;;;6059842;23;20045;-84
2024/02/10 03:08:45;;;;;;;94.63;37.33;;;7.10;99.90;;;;;;6039132;23;20023;-81
2024/02/10 03:11:33;;;;;;;115.53;38.80;;;7.10;99.90;;;;;;6062470;23;20418;-82
2024/02/10 03:14:22;;;;;;;847.28;80.68;;;7.20;99.90;;;;;;6059361;23;20474;-80
2024/02/10 03:17:10;;;;;;;869.08;76.38;;;7.20;99.90;;;;;;6059536;23;20033;-83
2024/02/10 03:19:58;;;;;;;343.60;42.63;;;7.10;99.90;;;;;;6060933;23;20031;-85
2024/02/10 03:23:01;;;;;;;343.52;49.63;;;7.00;99.90;;;;;;6059980;23;20030;-84
2024/02/10 03:25:49;;;;;;;999.05;80.50;;;7.10;99.90;;;;;;6060202;23;20031;-85
2024/02/10 03:28:37;;;;;;;729.70;64.32;;;7.00;99.90;;;;;;6060169;23;20046;-84
2024/02/10 03:31:25;;;;;;;514.50;53.15;;;7.00;99.90;;;;;;6059917;23;20402;-84
2024/02/10 03:34:12;;;;;;;479.90;54.88;;;7.00;99.90;;;;;;6060499;23;20027;-82
2024/02/10 03:37:02;;;;;;;144.50;44.03;;;7.10;99.90;;;;;;6068641;23;20060;-80
2024/02/10 03:39:49;;;;;;;111.43;41.03;;;7.10;99.90;;;;;;6059166;23;20038;-83
2024/02/10 03:42:37;;;;;;;116.63;41.40;;;7.20;99.90;;;;;;6061205;23;20767;-81
2024/02/10 03:45:25;;;;;;;189.95;44.78;;;7.20;99.90;;;;;;6046881;23;20030;-82
2024/02/10 03:48:14;;;;;;;152.15;42.65;;;7.20;99.90;;;;;;6068840;23;20027;-80
2024/02/10 03:51:02;;;;;;;259.83;44.20;;;7.20;99.90;;;;;;6061687;23;20114;-83
2024/02/10 03:53:50;;;;;;;553.97;56.30;;;7.20;99.90;;;;;;6062234;23;20023;-85
2024/02/10 03:56:37;;;;;;;617.88;56.47;;;7.10;99.90;;;;;;6031649;23;20048;-81
2024/02/10 03:59:25;;;;;;;291.88;45.08;;;7.00;99.90;;;;;;6032205;23;20086;-84
2024/02/10 04:02:17;;;;;;;148.23;41.42;;;6.90;99.90;;;;;;6033672;23;20029;-82
2024/02/10 04:05:06;;;;;;;181.90;42.90;;;7.00;99.90;;;;;;6013080;23;20027;-83
2024/02/10 04:07:53;;;;;;;131.95;40.28;;;7.00;99.90;;;;;;6037572;23;20027;-84
2024/02/10 04:10:41;;;;;;;142.68;40.78;;;7.00;99.90;;;;;;6031410;23;20435;-83
2024/02/10 04:13:29;;;;;;;131.43;39.00;;;7.00;99.90;;;;;;6029930;23;20031;-85
2024/02/10 04:16:16;;;;;;;133.35;40.05;;;6.90;99.90;;;;;;6031132;23;20577;-81
2024/02/10 04:19:04;;;;;;;328.48;46.28;;;6.90;99.90;;;;;;6037069;23;20028;-81
2024/02/10 04:21:52;;;;;;;337.60;46.85;;;6.90;99.90;;;;;;6045131;23;20034;-84
2024/02/10 04:24:41;;;;;;;224.77;41.25;;;6.80;99.90;;;;;;6025797;23;20032;-82
2024/02/10 04:27:29;;;;;;;187.85;42.88;;;6.80;99.90;;;;;;6028070;23;20038;-79
2024/02/10 04:30:18;;;;;;;215.77;40.20;;;6.80;99.90;;;;;;6043630;23;20442;-81
2024/02/10 04:33:06;;;;;;;486.02;49.72;;;6.80;99.90;;;;;;6046256;23;20027;-86
2024/02/10 04:35:55;;;;;;;469.75;48.50;;;6.80;99.90;;;;;;6039528;23;20031;-81
2024/02/10 04:38:43;;;;;;;498.75;50.85;;;6.80;99.90;;;;;;6039458;23;20083;-82
2024/02/10 04:41:31;;;;;;;401.48;42.17;;;6.80;99.90;;;;;;6017566;23;20103;-81
2024/02/10 04:44:19;;;;;;;262.33;38.05;;;6.80;99.90;;;;;;6039622;23;20050;-83
2024/02/10 04:47:09;;;;;;;232.80;34.47;;;6.80;99.90;;;;;;6024690;23;20032;-82
2024/02/10 04:50:01;;;;;;;200.20;32.05;;;6.70;99.90;;;;;;6044056;23;20074;-82
2024/02/10 04:52:49;;;;;;;308.02;36.47;;;6.70;99.90;;;;;;6035342;23;20024;-81
2024/02/10 04:55:41;;;;;;;232.43;30.92;;;6.70;99.90;;;;;;6050039;23;20034;-80
2024/02/10 04:58:32;;;;;;;657.03;52.35;;;6.70;99.90;;;;;;6061873;23;20034;-84
2024/02/10 05:01:30;;;;;;;203.10;33.75;;;6.50;99.90;;;;;;6060569;23;20046;-85
2024/02/10 05:04:17;;;;;;;117.82;30.20;;;6.50;99.90;;;;;;6065290;23;20034;-76
2024/02/10 05:07:08;;;;;;;245.05;38.53;;;6.50;99.90;;;;;;6073352;23;20043;-79
2024/02/10 05:10:00;;;;;;;223.88;36.30;;;6.60;99.90;;;;;;6075758;23;20035;-86
2024/02/10 05:12:50;;;;;;;;;;;6.60;99.90;;;;;;6065446;23;20107;-83
2024/02/10 05:15:38;;;;;;;271.85;35.78;;;6.60;99.90;;;;;;6067793;23;19922;-78
2024/02/10 05:18:27;;;;;;;254.43;35.63;;;6.60;99.90;;;;;;6073691;23;20039;-82
2024/02/10 05:21:22;;;;;;;530.47;47.60;;;6.60;99.90;;;;;;6067658;23;20045;-81
2024/02/10 05:24:14;;;;;;;771.67;60.97;;;6.60;99.90;;;;;;6039315;23;20023;-81
2024/02/10 05:27:02;;;;;;;549.22;47.47;;;6.60;99.90;;;;;;6060883;23;20369;-81
2024/02/10 05:29:49;;;;;;;664.92;54.63;;;6.60;99.90;;;;;;6083163;23;20027;-81
2024/02/10 05:32:39;;;;;;;568.35;50.25;;;6.60;99.90;;;;;;6085094;23;20041;-78
2024/02/10 05:35:29;;;;;;;106.80;28.25;;;6.60;99.90;;;;;;6067193;23;20030;-81
2024/02/10 05:38:21;;;;;;;111.82;29.73;;;6.50;99.90;;;;;;6062721;23;20058;-84
2024/02/10 05:41:08;;;;;;;318.55;40.63;;;6.50;99.90;;;;;;6064173;23;20047;-85
2024/02/10 05:43:56;;;;;;;714.15;57.20;;;6.50;99.90;;;;;;6063591;23;20026;-83
2024/02/10 05:46:45;;;;;;;968.38;77.05;;;6.40;99.90;;;;;;6042354;23;20030;-81
2024/02/10 05:49:34;;;;;;;738.40;59.58;;;6.40;99.90;;;;;;6047018;23;20038;-83
2024/02/10 05:52:21;;;;;;;149.57;32.63;;;6.40;99.90;;;;;;6072983;23;20033;-82
2024/02/10 05:55:12;;;;;;;215.35;35.28;;;6.40;99.90;;;;;;6082400;23;20011;-81
2024/02/10 05:58:06;;;;;;;332.58;42.08;;;6.40;99.90;;;;;;6061050;23;20082;-79
2024/02/10 06:00:58;;;;;;;225.00;37.72;;;6.40;99.90;;;;;;6080995;23;20050;-85
2024/02/10 06:03:45;;;;;;;377.65;43.38;;;6.40;99.90;;;;;;6072644;23;20225;-83
2024/02/10 06:06:33;;;;;;;106.68;29.75;;;6.40;99.90;;;;;;6071674;23;20110;-85
2024/02/10 06:09:20;;;;;;;102.50;28.83;;;6.30;99.90;;;;;;6037783;23;20034;-76
2024/02/10 06:12:09;;;;;;;92.95;27.60;;;6.40;99.90;;;;;;6070578;23;20034;-82
2024/02/10 06:14:57;;;;;;;173.00;31.98;;;6.40;99.90;;;;;;6070300;23;20033;-83
2024/02/10 06:17:55;;;;;;;145.13;31.02;;;6.40;99.90;;;;;;6063962;23;20054;-83
2024/02/10 06:20:45;;;;;;;217.07;36.67;;;6.40;99.90;;;;;;6063582;23;20493;-83
2024/02/10 06:23:33;;;;;;;189.80;35.63;;;6.40;99.90;;;;;;6062955;23;20031;-81
2024/02/10 06:26:22;;;;;;;162.88;34.40;;;6.40;99.90;;;;;;6063455;23;20039;-83
2024/02/10 06:29:15;;;;;;;150.82;31.27;;;6.40;99.90;;;;;;6064996;23;20042;-83
2024/02/10 06:32:06;;;;;;;142.38;33.45;;;6.40;99.90;;;;;;6061824;23;20031;-84
2024/02/10 06:34:55;;;;;;;183.98;36.03;;;6.40;99.90;;;;;;6038248;23;20113;-83
2024/02/10 06:37:46;;;;;;;161.38;34.00;;;6.40;99.90;;;;;;6038093;23;20087;-83
2024/02/10 06:40:34;;;;;;;157.13;40.70;;;6.50;99.90;;;;;;6060749;23;20042;-84
2024/02/10 06:43:21;;;;;;;145.32;41.28;;;6.40;99.90;;;;;;6058895;23;20038;-85
2024/02/10 06:46:09;;;;;;;117.00;36.03;;;6.40;99.90;;;;;;6060736;23;20022;-83
2024/02/10 06:48:56;;;;;;;133.68;36.83;;;6.30;99.90;;;;;;6041976;23;20034;-83
2024/02/10 06:51:43;;;;;;;109.32;31.92;;;6.30;99.90;;;;;;6070730;23;20019;-83
2024/02/10 06:54:31;;;;;;;146.02;37.33;;;6.30;99.90;;;;;;6066121;23;20362;-80
2024/02/10 06:57:18;;;;;;;134.15;37.97;;;6.30;99.90;;;;;;6058331;23;20070;-82
2024/02/10 07:00:09;;;;;;;140.10;40.05;;;6.30;99.90;;;;;;6061493;23;20046;-82
2024/02/10 07:02:56;;;;;;;127.60;39.35;;;6.40;99.90;;;;;;6067121;23;20033;-79
2024/02/10 07:05:49;;;;;;;155.38;40.10;;;6.40;99.90;;;;;;6059268;23;20046;-75
2024/02/10 07:08:40;;;;;;;164.20;43.95;;;6.40;99.90;;;;;;6050838;23;20023;-76
2024/02/10 07:11:28;;;;;;;126.78;40.08;;;6.30;99.90;;;;;;6076048;23;20022;-77
2024/02/10 07:14:17;;;;;;;143.45;42.42;;;6.30;99.90;;;;;;6077919;23;20027;-75
2024/02/10 07:17:05;;;;;;;102.75;36.17;;;6.30;99.90;;;;;;6072622;23;20029;-78
2024/02/10 07:19:54;;;;;;;117.18;38.35;;;6.30;99.90;;;;;;6075556;23;20014;-78
2024/02/10 07:22:54;;;;;;;121.78;37.03;;;6.30;99.90;;;;;;6064451;23;20031;-77
2024/02/10 07:25:44;;;;;;;110.28;35.88;;;6.30;99.90;;;;;;6061816;23;20386;-76
2024/02/10 07:28:36;;;;;;;129.95;45.10;;;6.30;99.90;;;;;;6036168;23;20094;-80
2024/02/10 07:31:26;;;;;;;141.23;42.08;;;6.40;99.90;;;;;;6057473;23;20027;-78
2024/02/10 07:34:13;;;;;;;160.82;50.00;;;6.50;99.90;;;;;;6058947;23;20076;-77
2024/02/10 07:37:01;;;;;;;203.00;55.13;;;6.60;99.90;;;;;;6063783;23;20034;-74
2024/02/10 07:39:50;;;;;;;183.63;49.38;;;6.50;99.90;;;;;;6036282;23;20194;-79
2024/02/10 07:42:52;;;;;;;260.17;55.55;;;6.50;99.90;;;;;;6039099;23;20026;-80
2024/02/10 07:45:40;;;;;;;277.95;54.92;;;6.50;99.90;;;;;;6038341;23;20785;-79
2024/02/10 07:48:28;;;;;;;171.88;49.17;;;6.50;99.90;;;;;;6069798;23;20467;-76
2024/02/10 07:51:16;;;;;;;176.18;48.70;;;6.50;99.90;;;;;;6075388;23;20507;-78
2024/02/10 07:54:05;;;;;;;156.75;47.53;;;6.60;99.90;;;;;;6065568;23;20027;-78
2024/02/10 07:56:54;;;;;;;237.48;41.80;;;6.70;99.90;;;;;;6055532;23;20015;-74
2024/02/10 07:59:42;;;;;;;142.88;32.53;;;6.70;99.90;;;;;;6060653;23;20026;-78
2024/02/10 08:02:29;;;;;;;454.27;39.25;;;6.80;99.90;;;;;;6057485;23;20045;-78
2024/02/10 08:05:20;;;;;;;578.10;51.13;;;6.90;99.90;;;;;;6059497;23;20066;-77
2024/02/10 08:08:10;;;;;;;947.78;82.78;;;6.80;99.90;;;;;;6057967;23;20030;-78
2024/02/10 08:10:58;;;;;;;304.65;47.72;;;6.80;99.90;;;;;;6061614;23;20045;-78
2024/02/10 08:13:45;;;;;;;188.60;41.22;;;6.90;99.90;;;;;;6058899;23;20370;-80
2024/02/10 08:16:35;;;;;;;228.93;38.90;;;7.00;99.90;;;;;;6035805;23;20589;-77
2024/02/10 08:19:23;;;;;;;275.00;41.38;;;7.10;99.90;;;;;;6036677;23;20028;-78
2024/02/10 08:22:13;;;;;;;376.60;41.53;;;7.20;99.90;;;;;;6041434;23;20039;-79
2024/02/10 08:25:07;;;;;;;295.35;40.60;;;7.20;99.90;;;;;;6056023;23;20031;-80
2024/02/10 08:27:56;;;;;;;513.75;53.03;;;7.20;99.90;;;;;;6058176;23;20027;-77
2024/02/10 08:30:45;;;;;;;256.85;41.50;;;7.20;99.90;;;;;;6064831;23;20351;-80
2024/02/10 08:33:34;;;;;;;858.13;62.88;;;7.30;99.90;;;;;;6051521;23;20031;-79
2024/02/10 08:36:23;;;;;;;923.20;64.53;;;7.30;99.90;;;;;;6066296;23;20023;-80
2024/02/10 08:39:14;;;;;;;783.97;66.47;;;7.20;99.90;;;;;;6039476;23;20023;-78
2024/02/10 08:42:05;;;;;;;685.20;55.13;;;7.10;99.90;;;;;;6059880;23;20068;-78
2024/02/10 08:44:53;;;;;;;635.00;47.37;;;7.10;99.90;;;;;;6061080;23;20137;-79
2024/02/10 08:47:43;;;;;;;526.28;49.90;;;7.00;99.90;;;;;;6026955;23;20050;-78
2024/02/10 08:50:32;;;;;;;632.03;54.10;;;7.00;99.90;;;;;;6062040;23;20447;-79
2024/02/10 08:53:20;;;;;;;497.63;49.80;;;6.80;99.90;;;;;;6041958;23;20034;-78
2024/02/10 08:56:11;;;;;;;777.83;65.50;;;6.80;99.90;;;;;;6072788;23;20120;-76
2024/02/10 08:59:00;;;;;;;485.77;48.22;;;6.80;99.90;;;;;;6060907;23;20015;-77
2024/02/10 09:01:48;;;;;;;555.78;54.25;;;6.80;99.90;;;;;;6047987;23;20034;-79
2024/02/10 09:04:40;;;;;;;550.58;58.95;;;6.80;99.90;;;;;;6042202;23;20030;-79
2024/02/10 09:07:29;;;;;;;634.30;60.55;;;6.80;99.90;;;;;;6065098;23;20058;-78
2024/02/10 09:10:20;;;;;;;473.83;54.25;;;6.80;99.90;;;;;;6062603;23;20201;-78
2024/02/10 09:13:08;;;;;;;376.13;51.65;;;6.90;99.90;;;;;;6059929;23;20138;-78
2024/02/10 09:15:56;;;;;;;380.20;53.28;;;7.00;99.90;;;;;;6044107;23;20026;-79
2024/02/10 09:18:46;;;;;;;296.10;50.50;;;7.10;99.90;;;;;;6061550;23;20027;-79
2024/02/10 09:21:33;;;;;;;238.05;51.63;;;7.20;99.90;;;;;;6064797;23;20030;-76
2024/02/10 09:24:26;;;;;;;233.27;51.90;;;7.20;99.90;;;;;;6071615;23;20719;-77
2024/02/10 09:27:14;;;;;;;336.60;65.13;;;7.20;99.90;;;;;;6070633;23;20042;-79
2024/02/10 09:30:05;;;;;;;242.07;60.33;;;7.10;99.90;;;;;;6068083;23;20082;-77
2024/02/10 09:32:53;;;;;;;167.10;49.83;;;7.10;99.90;;;;;;6064903;23;20027;-78
2024/02/10 09:35:42;;;;;;;207.50;55.90;;;7.20;99.90;;;;;;6057065;23;20034;-78
2024/02/10 09:38:30;;;;;;;185.73;53.78;;;7.30;99.90;;;;;;6058612;23;20031;-80
2024/02/10 09:41:17;;;;;;;194.82;56.17;;;7.40;99.90;;;;;;6063927;23;20056;-78
2024/02/10 09:44:09;;;;;;;178.50;52.65;;;7.50;99.90;;;;;;6062316;23;20052;-77
2024/02/10 09:47:00;;;;;;;150.63;48.17;;;7.60;99.90;;;;;;6061788;23;20031;-80
2024/02/10 09:49:51;;;;;;;168.38;48.92;;;7.70;99.90;;;;;;6061750;23;20030;-78
2024/02/10 09:52:46;;;;;;;165.18;47.85;;;7.70;99.90;;;;;;6063364;23;20042;-80
2024/02/10 09:55:37;;;;;;;159.27;46.25;;;7.70;99.90;;;;;;6061825;23;20027;-78
2024/02/10 09:58:29;;;;;;;144.82;47.58;;;7.70;99.90;;;;;;6063388;23;20083;-80
2024/02/10 10:01:18;;;;;;;156.18;47.75;;;7.70;99.90;;;;;;6041375;23;20027;-82
2024/02/10 10:04:12;;;;;;;134.52;45.78;;;7.70;99.90;;;;;;6042527;23;20419;-80
2024/02/10 10:07:01;;;;;;;150.70;47.55;;;7.80;99.90;;;;;;6063228;23;20031;-79
2024/02/10 10:09:49;;;;;;;156.60;47.70;;;7.80;99.90;;;;;;6064038;23;20120;-77
2024/02/10 10:12:37;;;;;;;177.98;50.75;;;7.80;99.90;;;;;;6072952;23;20078;-79
2024/02/10 10:15:24;;;;;;;224.32;61.85;;;7.80;99.90;;;;;;6052847;23;20030;-80
2024/02/10 10:18:19;;;;;;;147.82;48.15;;;7.80;99.90;;;;;;6063426;23;20106;-79
2024/02/10 10:21:10;;;;;;;163.90;46.47;;;7.80;99.90;;;;;;6044524;23;20083;-78
2024/02/10 10:24:00;;;;;;;267.83;49.85;;;7.80;99.90;;;;;;6074030;23;20031;-79
2024/02/10 10:26:50;;;;;;;163.95;44.53;;;7.80;99.90;;;;;;6067756;23;20082;-78
2024/02/10 10:29:39;;;;;;;165.98;44.22;;;7.90;99.90;;;;;;6064433;23;20530;-79
2024/02/10 10:32:27;;;;;;;139.18;43.28;;;7.90;99.90;;;;;;6063028;23;20031;-81
2024/02/10 10:35:17;;;;;;;147.85;41.90;;;7.90;99.90;;;;;;6046862;23;20030;-77
2024/02/10 10:38:08;;;;;;;187.10;42.58;;;7.90;99.90;;;;;;6073781;23;20087;-79
2024/02/10 10:40:59;;;;;;;126.28;39.33;;;7.90;99.90;;;;;;6081013;23;20302;-76
2024/02/10 10:43:47;;;;;;;128.63;43.45;;;8.00;99.90;;;;;;6044029;23;20607;-78
2024/02/10 10:46:35;;;;;;;114.03;43.25;;;8.00;99.90;;;;;;6062452;23;20026;-80
2024/02/10 10:49:22;;;;;;;111.10;44.33;;;8.10;99.90;;;;;;6063427;23;20034;-79
2024/02/10 10:52:12;;;;;;;119.45;44.13;;;8.10;99.90;;;;;;6064322;23;20066;-81
2024/02/10 10:55:00;;;;;;;115.25;45.50;;;8.20;99.90;;;;;;6045362;23;20030;-77
2024/02/10 10:57:49;;;;;;;104.78;42.42;;;8.30;99.90;;;;;;6053656;23;20027;-79
2024/02/10 11:00:41;;;;;;;104.00;41.28;;;8.40;99.90;;;;;;6072817;23;20030;-79
2024/02/10 11:03:30;;;;;;;90.25;39.05;;;8.50;99.90;;;;;;6050787;23;20451;-79
2024/02/10 11:06:19;;;;;;;89.53;37.78;;;8.50;99.90;;;;;;6052228;23;20042;-80
2024/02/10 11:09:07;;;;;;;90.55;38.15;;;8.60;99.90;;;;;;6072179;23;20034;-80
2024/02/10 11:11:55;;;;;;;77.13;35.42;;;8.60;99.90;;;;;;6064180;23;20023;-79
2024/02/10 11:14:56;;;;;;;85.32;36.60;;;8.60;99.90;;;;;;6061522;23;20034;-79
2024/02/10 11:17:43;;;;;;;83.45;37.63;;;8.70;99.90;;;;;;6062129;23;20030;-79
2024/02/10 11:20:38;;;;;;;109.90;44.38;;;8.90;99.90;;;;;;6062196;23;20247;-80
2024/02/10 11:23:29;;;;;;;110.82;44.60;;;8.80;99.90;;;;;;6064991;23;20027;-78
2024/02/10 11:26:20;;;;;;;107.93;45.40;;;8.50;99.90;;;;;;6064097;23;20035;-79
2024/02/10 11:29:09;;;;;;;109.65;46.75;;;8.30;99.90;;;;;;6063866;23;20043;-78
2024/02/10 11:32:01;;;;;;;107.13;44.80;;;8.30;99.90;;;;;;6064062;23;20118;-80
2024/02/10 11:34:49;;;;;;;121.63;58.50;;;8.30;99.90;;;;;;6042284;23;20033;-81
2024/02/10 11:37:37;;;;;;;95.28;42.80;;;8.30;99.90;;;;;;6058740;23;20106;-80
2024/02/10 11:40:29;;;;;;;82.28;41.63;;;8.30;99.90;;;;;;6059477;23;20026;-78
2024/02/10 11:43:16;;;;;;;85.20;41.63;;;8.50;99.90;;;;;;6061785;23;20030;-80
2024/02/10 11:46:08;;;;;;;88.85;41.63;;;8.50;99.90;;;;;;6064849;23;20462;-77
2024/02/10 11:48:59;;;;;;;83.35;40.80;;;8.70;99.90;;;;;;6069869;23;20065;-76
2024/02/10 11:51:50;;;;;;;72.70;36.97;;;8.80;99.90;;;;;;6079774;23;20026;-78
2024/02/10 11:54:38;;;;;;;72.88;36.17;;;9.00;99.90;;;;;;6060932;23;20030;-77
2024/02/10 11:57:27;;;;;;;62.85;33.20;;;9.20;99.90;;;;;;6053198;23;20028;-75
2024/02/10 12:00:20;;;;;;;60.28;31.10;;;9.20;99.90;;;;;;6049262;23;20031;-77
2024/02/10 12:03:08;;;;;;;58.75;31.30;;;9.20;99.90;;;;;;6048153;23;20034;-79
2024/02/10 12:05:57;;;;;;;56.90;30.27;;;9.20;99.90;;;;;;6023345;23;20522;-79
2024/02/10 12:08:45;;;;;;;50.35;29.48;;;9.30;99.90;;;;;;6035662;23;20026;-78
2024/02/10 12:11:33;;;;;;;44.72;27.52;;;9.40;99.90;;;;;;6033869;23;20038;-80
2024/02/10 12:14:23;;;;;;;41.13;26.02;;;9.50;99.90;;;;;;6035943;23;20102;-79
2024/02/10 12:17:10;;;;;;;38.83;25.10;;;9.50;99.90;;;;;;6046772;23;20024;-77
2024/02/10 12:19:59;;;;;;;34.72;23.98;;;10.00;99.90;;;;;;6040636;23;20012;-78
2024/02/10 12:22:48;;;;;;;34.45;20.60;;;10.70;99.90;;;;;;6056536;23;20054;-80
2024/02/10 12:25:37;;;;;;;23.17;17.05;;;11.30;99.90;;;;;;6024279;23;20490;-80
2024/02/10 12:28:24;;;;;;;21.40;13.95;;;11.40;99.90;;;;;;6052417;23;20083;-79
2024/02/10 12:31:18;;;;;;;19.70;14.48;;;11.30;99.90;;;;;;6034246;23;20031;-79
2024/02/10 12:34:08;;;;;;;23.00;14.68;;;11.10;99.90;;;;;;6053338;23;20031;-79
2024/02/10 12:36:58;;;;;;;19.42;15.10;;;11.00;99.90;;;;;;6042120;23;20038;-80
2024/02/10 12:39:47;;;;;;;22.70;14.30;;;11.10;99.90;;;;;;6023409;23;20051;-81
2024/02/10 12:42:34;;;;;;;18.42;13.75;;;11.40;99.90;;;;;;6036734;23;20369;-79
2024/02/10 12:45:23;;;;;;;19.83;14.32;;;11.50;99.90;;;;;;6022569;23;20034;-79
2024/02/10 12:48:10;;;;;;;23.42;13.43;;;11.50;99.90;;;;;;6044559;23;20042;-81
2024/02/10 12:51:00;;;;;;;18.95;13.80;;;11.60;99.90;;;;;;6038580;23;20051;-80
2024/02/10 12:53:53;;;;;;;19.77;13.50;;;11.50;99.90;;;;;;6033352;23;20082;-79
2024/02/10 12:56:42;;;;;;;19.45;13.18;;;11.20;99.90;;;;;;6057495;23;20035;-78
2024/02/10 12:59:30;;;;;;;22.50;14.25;;;10.90;99.90;;;;;;6062618;23;20031;-81
2024/02/10 13:02:21;;;;;;;20.35;14.52;;;10.70;99.90;;;;;;6061780;23;20065;-80
2024/02/10 13:05:10;;;;;;;34.63;20.70;;;10.60;99.90;;;;;;6062455;23;20054;-80
2024/02/10 13:08:02;;;;;;;29.75;18.52;;;10.60;99.90;;;;;;6063834;23;20038;-79
2024/02/10 13:10:51;;;;;;;25.75;15.45;;;10.90;99.90;;;;;;6041146;23;20027;-78
2024/02/10 13:13:44;;;;;;;20.95;14.13;;;11.50;99.90;;;;;;6067370;23;20038;-81
2024/02/10 13:16:32;;;;;;;17.70;11.75;;;12.70;99.90;;;;;;6063355;23;20030;-78
2024/02/10 13:19:20;;;;;;;16.73;10.75;;;14.30;99.90;;;;;;6064951;23;20126;-77
2024/02/10 13:22:11;;;;;;;17.75;10.15;;;15.40;99.90;;;;;;6060656;23;20125;-77
2024/02/10 13:25:00;;;;;;;14.65;9.75;;;16.10;99.90;;;;;;6074076;23;20058;-78
2024/02/10 13:27:52;;;;;;;15.25;9.57;;;16.00;99.90;;;;;;6062460;23;20113;-79
2024/02/10 13:30:43;;;;;;;14.30;9.80;;;15.40;99.90;;;;;;6070721;23;20031;-78
2024/02/10 13:33:33;;;;;;;16.70;10.32;;;15.00;99.90;;;;;;6072470;23;20037;-81
2024/02/10 13:36:21;;;;;;;15.40;10.05;;;14.90;99.90;;;;;;6064014;23;20105;-79
2024/02/10 14:00:54;;;;;;;22.02;13.70;;;14.00;99.90;;;;;;6060913;23;20351;-78
2024/02/10 14:06:52;;;;;;;16.58;9.43;;;14.00;99.90;;;;;;6061174;23;20594;-79
2024/02/10 14:09:44;;;;;;;13.88;8.57;;;14.40;99.90;;;;;;6044404;23;20027;-76
2024/02/10 14:12:33;;;;;;;15.63;9.27;;;14.10;99.90;;;;;;6052660;23;20026;-78
2024/02/10 14:15:30;;;;;;;13.95;9.15;;;13.90;99.90;;;;;;6066602;23;20485;-79
2024/02/10 14:18:28;;;;;;;15.65;9.18;;;13.50;99.90;;;;;;6043750;23;20027;-78
2024/02/10 14:21:24;;;;;;;17.67;10.48;;;13.30;99.90;;;;;;6050915;23;20035;-81
2024/02/10 14:24:15;;;;;;;16.00;9.88;;;13.10;99.90;;;;;;6049137;23;20097;-81
2024/02/10 14:27:13;;;;;;;18.38;11.18;;;13.20;99.90;;;;;;6067393;23;20055;-79
2024/02/10 14:30:05;;;;;;;17.65;10.48;;;12.90;99.90;;;;;;6062981;23;20031;-78
2024/02/10 14:32:53;;;;;;;19.73;11.18;;;12.60;99.90;;;;;;6061534;23;20106;-81
2024/02/10 14:39:17;;;;;;;17.92;10.48;;;12.60;99.90;;;;;;6035479;23;20026;-81
2024/02/10 14:42:06;;;;;;;16.55;10.15;;;12.80;99.90;;;;;;6060234;23;20027;-77
2024/02/10 14:44:54;;;;;;;18.92;10.40;;;13.00;99.90;;;;;;6068655;23;20023;-80
2024/02/10 14:47:44;;;;;;;16.25;10.52;;;13.00;99.90;;;;;;6063728;23;20040;-81
2024/02/10 14:50:36;;;;;;;20.38;10.98;;;13.10;99.90;;;;;;6059372;23;20022;-78
2024/02/10 14:53:34;;;;;;;15.70;10.85;;;12.80;99.90;;;;;;6059649;23;20117;-82